sensor_id;sensor_type;location;lat;lon;timestamp;temperature;humidity
34492;DHT22;20737;49.908;8.126;2023-04-16T00:01:25;9.20;99.90
34492;DHT22;20737;49.908;8.126;2023-04-16T00:03:51;9.10;99.90
34492;DHT22;20737;49.908;8.126;2023-04-16T00:06:18;9.10;99.90
34492;DHT22;20737;49.908;8.126;2023-04-16T00:08:45;9.10;99.90
34492;DHT22;20737;49.908;8.126;2023-04-16T00:11:14;9.20;99.90
34492;DHT22;20737;49.908;8.126;2023-04-16T00:13:40;9.20;99.90
34492;DHT22;20737;49.908;8.126;2023-04-16T00:16:07;9.20;99.90
34492;DHT22;20737;49.908;8.126;2023-04-16T00:18:34;9.20;99.90
34492;DHT22;20737;49.908;8.126;2023-04-16T00:21:01;9.10;99.90
34492;DHT22;20737;49.908;8.126;2023-04-16T00:23:27;9.10;99.90
34492;DHT22;20737;49.908;8.126;2023-04-16T00:25:54;9.10;99.90
34492;DHT22;20737;49.908;8.126;2023-04-16T00:28:25;9.20;99.90
34492;DHT22;20737;49.908;8.126;2023-04-16T00:30:52;9.10;99.90
34492;DHT22;20737;49.908;8.126;2023-04-16T00:33:19;9.10;99.90
34492;DHT22;20737;49.908;8.126;2023-04-16T00:35:46;9.10;99.90
34492;DHT22;20737;49.908;8.126;2023-04-16T00:38:13;9.10;99.90
34492;DHT22;20737;49.908;8.126;2023-04-16T00:40:40;9.10;99.90
34492;DHT22;20737;49.908;8.126;2023-04-16T00:43:07;9.10;99.90
34492;DHT22;20737;49.908;8.126;2023-04-16T00:45:35;9.10;99.90
34492;DHT22;20737;49.908;8.126;2023-04-16T00:48:03;9.10;99.90
34492;DHT22;20737;49.908;8.126;2023-04-16T00:50:30;9.10;99.90
34492;DHT22;20737;49.908;8.126;2023-04-16T00:52:56;9.10;99.90
34492;DHT22;20737;49.908;8.126;2023-04-16T00:55:23;9.10;99.90
34492;DHT22;20737;49.908;8.126;2023-04-16T00:57:50;9.10;99.90
34492;DHT22;20737;49.908;8.126;2023-04-16T01:00:17;9.10;99.90
34492;DHT22;20737;49.908;8.126;2023-04-16T01:02:45;9.10;99.90
34492;DHT22;20737;49.908;8.126;2023-04-16T01:05:12;9.10;99.90
34492;DHT22;20737;49.908;8.126;2023-04-16T01:07:38;9.10;99.90
34492;DHT22;20737;49.908;8.126;2023-04-16T01:10:06;9.10;99.90
34492;DHT22;20737;49.908;8.126;2023-04-16T01:12:33;9.10;99.90
34492;DHT22;20737;49.908;8.126;2023-04-16T01:15:00;9.10;99.90
34492;DHT22;20737;49.908;8.126;2023-04-16T01:17:26;9.10;99.90
34492;DHT22;20737;49.908;8.126;2023-04-16T01:19:57;9.10;99.90
34492;DHT22;20737;49.908;8.126;2023-04-16T01:22:25;9.10;99.90
34492;DHT22;20737;49.908;8.126;2023-04-16T01:24:52;9.10;99.90
34492;DHT22;20737;49.908;8.126;2023-04-16T01:27:19;9.10;99.90
34492;DHT22;20737;49.908;8.126;2023-04-16T01:29:45;9.10;99.90
34492;DHT22;20737;49.908;8.126;2023-04-16T01:32:12;9.10;99.90
34492;DHT22;20737;49.908;8.126;2023-04-16T01:34:39;9.10;99.90
34492;DHT22;20737;49.908;8.126;2023-04-16T01:37:06;9.10;99.90
34492;DHT22;20737;49.908;8.126;2023-04-16T01:39:34;9.10;99.90
34492;DHT22;20737;49.908;8.126;2023-04-16T01:42:01;9.10;99.90
34492;DHT22;20737;49.908;8.126;2023-04-16T01:44:27;9.10;99.90
34492;DHT22;20737;49.908;8.126;2023-04-16T01:46:55;9.10;99.90
34492;DHT22;20737;49.908;8.126;2023-04-16T01:49:22;9.10;99.90
34492;DHT22;20737;49.908;8.126;2023-04-16T01:51:49;9.10;99.90
34492;DHT22;20737;49.908;8.126;2023-04-16T01:54:17;9.10;99.90
34492;DHT22;20737;49.908;8.126;2023-04-16T01:56:45;9.10;99.90
34492;DHT22;20737;49.908;8.126;2023-04-16T01:59:12;9.10;99.90
34492;DHT22;20737;49.908;8.126;2023-04-16T02:01:39;9.00;99.90
34492;DHT22;20737;49.908;8.126;2023-04-16T02:04:06;9.00;99.90
34492;DHT22;20737;49.908;8.126;2023-04-16T02:06:33;9.10;99.90
34492;DHT22;20737;49.908;8.126;2023-04-16T02:09:00;9.10;99.90
34492;DHT22;20737;49.908;8.126;2023-04-16T02:11:27;9.10;99.90
34492;DHT22;20737;49.908;8.126;2023-04-16T02:13:55;9.10;99.90
34492;DHT22;20737;49.908;8.126;2023-04-16T02:16:21;9.10;99.90
34492;DHT22;20737;49.908;8.126;2023-04-16T02:18:48;9.10;99.90
34492;DHT22;20737;49.908;8.126;2023-04-16T02:21:15;9.10;99.90
34492;DHT22;20737;49.908;8.126;2023-04-16T02:23:41;9.10;99.90
34492;DHT22;20737;49.908;8.126;2023-04-16T02:26:11;9.10;99.90
34492;DHT22;20737;49.908;8.126;2023-04-16T02:28:38;9.00;99.90
34492;DHT22;20737;49.908;8.126;2023-04-16T02:31:07;9.00;99.90
34492;DHT22;20737;49.908;8.126;2023-04-16T02:33:33;9.00;99.90
34492;DHT22;20737;49.908;8.126;2023-04-16T02:36:02;9.00;99.90
34492;DHT22;20737;49.908;8.126;2023-04-16T02:38:29;8.90;99.90
34492;DHT22;20737;49.908;8.126;2023-04-16T02:40:56;9.00;99.90
34492;DHT22;20737;49.908;8.126;2023-04-16T02:43:23;8.90;99.90
34492;DHT22;20737;49.908;8.126;2023-04-16T02:45:50;8.90;99.90
34492;DHT22;20737;49.908;8.126;2023-04-16T02:48:18;8.90;99.90
34492;DHT22;20737;49.908;8.126;2023-04-16T02:50:44;8.90;99.90
34492;DHT22;20737;49.908;8.126;2023-04-16T02:53:11;8.90;99.90
34492;DHT22;20737;49.908;8.126;2023-04-16T02:55:38;8.90;99.90
34492;DHT22;20737;49.908;8.126;2023-04-16T02:58:05;8.90;99.90
34492;DHT22;20737;49.908;8.126;2023-04-16T03:00:32;8.90;99.90
34492;DHT22;20737;49.908;8.126;2023-04-16T03:02:58;8.90;99.90
34492;DHT22;20737;49.908;8.126;2023-04-16T03:05:26;8.90;99.90
34492;DHT22;20737;49.908;8.126;2023-04-16T03:07:53;9.00;99.90
34492;DHT22;20737;49.908;8.126;2023-04-16T03:10:21;9.00;99.90
34492;DHT22;20737;49.908;8.126;2023-04-16T03:12:48;9.00;99.90
34492;DHT22;20737;49.908;8.126;2023-04-16T03:15:18;9.00;99.90
34492;DHT22;20737;49.908;8.126;2023-04-16T03:17:46;9.00;99.90
34492;DHT22;20737;49.908;8.126;2023-04-16T03:20:12;8.90;99.90
34492;DHT22;20737;49.908;8.126;2023-04-16T03:22:43;9.00;99.90
34492;DHT22;20737;49.908;8.126;2023-04-16T03:25:09;9.00;99.90
34492;DHT22;20737;49.908;8.126;2023-04-16T03:27:36;9.00;99.90
34492;DHT22;20737;49.908;8.126;2023-04-16T03:30:05;9.00;99.90
34492;DHT22;20737;49.908;8.126;2023-04-16T03:32:32;8.90;99.90
34492;DHT22;20737;49.908;8.126;2023-04-16T03:34:59;9.00;99.90
34492;DHT22;20737;49.908;8.126;2023-04-16T03:37:25;9.00;99.90
34492;DHT22;20737;49.908;8.126;2023-04-16T03:39:54;9.00;99.90
34492;DHT22;20737;49.908;8.126;2023-04-16T03:42:22;9.00;99.90
34492;DHT22;20737;49.908;8.126;2023-04-16T03:44:51;9.10;99.90
34492;DHT22;20737;49.908;8.126;2023-04-16T03:47:18;9.00;99.90
34492;DHT22;20737;49.908;8.126;2023-04-16T03:49:45;9.00;99.90
34492;DHT22;20737;49.908;8.126;2023-04-16T03:52:15;9.10;99.90
34492;DHT22;20737;49.908;8.126;2023-04-16T03:54:42;9.10;99.90
34492;DHT22;20737;49.908;8.126;2023-04-16T03:57:10;9.10;99.90
34492;DHT22;20737;49.908;8.126;2023-04-16T03:59:36;9.10;99.90
34492;DHT22;20737;49.908;8.126;2023-04-16T04:02:03;9.10;99.90
34492;DHT22;20737;49.908;8.126;2023-04-16T04:04:32;9.10;99.90
34492;DHT22;20737;49.908;8.126;2023-04-16T04:06:58;9.10;99.90
34492;DHT22;20737;49.908;8.126;2023-04-16T04:09:25;9.00;99.90
34492;DHT22;20737;49.908;8.126;2023-04-16T04:11:52;9.00;99.90
34492;DHT22;20737;49.908;8.126;2023-04-16T04:14:20;9.00;99.90
34492;DHT22;20737;49.908;8.126;2023-04-16T04:16:47;9.10;99.90
34492;DHT22;20737;49.908;8.126;2023-04-16T04:19:14;9.10;99.90
34492;DHT22;20737;49.908;8.126;2023-04-16T04:21:40;9.00;99.90
34492;DHT22;20737;49.908;8.126;2023-04-16T04:24:07;9.00;99.90
34492;DHT22;20737;49.908;8.126;2023-04-16T04:26:34;8.90;99.90
34492;DHT22;20737;49.908;8.126;2023-04-16T04:29:00;8.90;99.90
34492;DHT22;20737;49.908;8.126;2023-04-16T04:31:28;8.80;99.90
34492;DHT22;20737;49.908;8.126;2023-04-16T04:33:55;8.80;99.90
34492;DHT22;20737;49.908;8.126;2023-04-16T04:36:22;8.80;99.90
34492;DHT22;20737;49.908;8.126;2023-04-16T04:38:48;8.80;99.90
34492;DHT22;20737;49.908;8.126;2023-04-16T04:41:15;8.80;99.90
34492;DHT22;20737;49.908;8.126;2023-04-16T04:43:43;8.80;99.90
34492;DHT22;20737;49.908;8.126;2023-04-16T04:46:12;8.80;99.90
34492;DHT22;20737;49.908;8.126;2023-04-16T04:48:40;8.90;99.90
34492;DHT22;20737;49.908;8.126;2023-04-16T04:51:07;8.90;99.90
34492;DHT22;20737;49.908;8.126;2023-04-16T04:53:33;8.90;99.90
34492;DHT22;20737;49.908;8.126;2023-04-16T04:56:00;8.90;99.90
34492;DHT22;20737;49.908;8.126;2023-04-16T04:58:27;8.90;99.90
34492;DHT22;20737;49.908;8.126;2023-04-16T05:00:53;9.00;99.90
34492;DHT22;20737;49.908;8.126;2023-04-16T05:03:21;9.00;99.90
34492;DHT22;20737;49.908;8.126;2023-04-16T05:05:49;9.00;99.90
34492;DHT22;20737;49.908;8.126;2023-04-16T05:08:15;9.10;99.90
34492;DHT22;20737;49.908;8.126;2023-04-16T05:10:45;9.10;99.90
34492;DHT22;20737;49.908;8.126;2023-04-16T05:13:11;9.10;99.90
34492;DHT22;20737;49.908;8.126;2023-04-16T05:15:38;9.10;99.90
34492;DHT22;20737;49.908;8.126;2023-04-16T05:18:05;9.10;99.90
34492;DHT22;20737;49.908;8.126;2023-04-16T05:20:32;9.10;99.90
34492;DHT22;20737;49.908;8.126;2023-04-16T05:23:02;9.20;99.90
34492;DHT22;20737;49.908;8.126;2023-04-16T05:25:30;9.20;99.90
34492;DHT22;20737;49.908;8.126;2023-04-16T05:27:57;9.20;99.90
34492;DHT22;20737;49.908;8.126;2023-04-16T05:30:26;9.20;99.90
34492;DHT22;20737;49.908;8.126;2023-04-16T05:32:53;9.20;99.90
34492;DHT22;20737;49.908;8.126;2023-04-16T05:35:20;9.20;99.90
34492;DHT22;20737;49.908;8.126;2023-04-16T05:37:50;9.10;99.90
34492;DHT22;20737;49.908;8.126;2023-04-16T05:40:18;9.10;99.90
34492;DHT22;20737;49.908;8.126;2023-04-16T05:42:45;9.10;99.90
34492;DHT22;20737;49.908;8.126;2023-04-16T05:45:11;9.10;99.90
34492;DHT22;20737;49.908;8.126;2023-04-16T05:47:38;9.10;99.90
34492;DHT22;20737;49.908;8.126;2023-04-16T05:50:06;9.00;99.90
34492;DHT22;20737;49.908;8.126;2023-04-16T05:52:32;9.10;99.90
34492;DHT22;20737;49.908;8.126;2023-04-16T05:54:59;9.10;99.90
34492;DHT22;20737;49.908;8.126;2023-04-16T05:57:27;9.10;99.90
34492;DHT22;20737;49.908;8.126;2023-04-16T05:59:54;9.10;99.90
34492;DHT22;20737;49.908;8.126;2023-04-16T06:02:21;9.20;99.90
34492;DHT22;20737;49.908;8.126;2023-04-16T06:04:48;9.10;99.90
34492;DHT22;20737;49.908;8.126;2023-04-16T06:07:15;9.20;99.90
34492;DHT22;20737;49.908;8.126;2023-04-16T06:09:41;9.20;99.90
34492;DHT22;20737;49.908;8.126;2023-04-16T06:12:08;9.30;99.90
34492;DHT22;20737;49.908;8.126;2023-04-16T06:14:36;9.30;99.90
34492;DHT22;20737;49.908;8.126;2023-04-16T06:17:03;9.30;99.90
34492;DHT22;20737;49.908;8.126;2023-04-16T06:19:30;9.30;99.90
34492;DHT22;20737;49.908;8.126;2023-04-16T06:21:56;9.40;99.90
34492;DHT22;20737;49.908;8.126;2023-04-16T06:24:23;9.60;99.90
34492;DHT22;20737;49.908;8.126;2023-04-16T06:26:50;9.80;99.90
34492;DHT22;20737;49.908;8.126;2023-04-16T06:29:17;9.70;99.90
34492;DHT22;20737;49.908;8.126;2023-04-16T06:31:45;9.70;99.90
34492;DHT22;20737;49.908;8.126;2023-04-16T06:34:12;9.70;99.90
34492;DHT22;20737;49.908;8.126;2023-04-16T06:36:38;9.70;99.90
34492;DHT22;20737;49.908;8.126;2023-04-16T06:39:05;9.70;99.90
34492;DHT22;20737;49.908;8.126;2023-04-16T06:41:32;9.60;99.90
34492;DHT22;20737;49.908;8.126;2023-04-16T06:43:59;9.60;99.90
34492;DHT22;20737;49.908;8.126;2023-04-16T06:46:26;9.60;99.90
34492;DHT22;20737;49.908;8.126;2023-04-16T06:48:54;9.60;99.90
34492;DHT22;20737;49.908;8.126;2023-04-16T06:51:21;9.60;99.90
34492;DHT22;20737;49.908;8.126;2023-04-16T06:53:48;9.60;99.90
34492;DHT22;20737;49.908;8.126;2023-04-16T06:56:14;9.70;99.90
34492;DHT22;20737;49.908;8.126;2023-04-16T06:58:41;9.70;99.90
34492;DHT22;20737;49.908;8.126;2023-04-16T07:01:08;9.60;99.90
34492;DHT22;20737;49.908;8.126;2023-04-16T07:03:37;9.70;99.90
34492;DHT22;20737;49.908;8.126;2023-04-16T07:06:05;9.70;99.90
34492;DHT22;20737;49.908;8.126;2023-04-16T07:08:32;9.80;99.90
34492;DHT22;20737;49.908;8.126;2023-04-16T07:10:58;9.90;99.90
34492;DHT22;20737;49.908;8.126;2023-04-16T07:13:25;10.20;99.90
34492;DHT22;20737;49.908;8.126;2023-04-16T07:15:52;10.30;99.90
34492;DHT22;20737;49.908;8.126;2023-04-16T07:18:19;10.50;99.90
34492;DHT22;20737;49.908;8.126;2023-04-16T07:20:46;10.40;99.90
34492;DHT22;20737;49.908;8.126;2023-04-16T07:23:14;10.40;99.90
34492;DHT22;20737;49.908;8.126;2023-04-16T07:25:41;10.30;99.90
34492;DHT22;20737;49.908;8.126;2023-04-16T07:28:07;10.30;99.90
34492;DHT22;20737;49.908;8.126;2023-04-16T07:30:34;10.20;99.90
34492;DHT22;20737;49.908;8.126;2023-04-16T07:33:02;10.00;99.90
34492;DHT22;20737;49.908;8.126;2023-04-16T07:35:29;9.80;99.90
34492;DHT22;20737;49.908;8.126;2023-04-16T07:37:56;9.70;99.90
34492;DHT22;20737;49.908;8.126;2023-04-16T07:40:25;9.50;99.90
34492;DHT22;20737;49.908;8.126;2023-04-16T07:42:52;9.40;99.90
34492;DHT22;20737;49.908;8.126;2023-04-16T07:45:20;9.50;99.90
34492;DHT22;20737;49.908;8.126;2023-04-16T07:47:47;9.40;99.90
34492;DHT22;20737;49.908;8.126;2023-04-16T07:50:15;9.50;99.90
34492;DHT22;20737;49.908;8.126;2023-04-16T07:52:43;9.40;99.90
34492;DHT22;20737;49.908;8.126;2023-04-16T07:55:10;9.50;99.90
34492;DHT22;20737;49.908;8.126;2023-04-16T07:57:39;9.40;99.90
34492;DHT22;20737;49.908;8.126;2023-04-16T08:00:07;9.50;99.90
34492;DHT22;20737;49.908;8.126;2023-04-16T08:02:34;9.50;99.90
34492;DHT22;20737;49.908;8.126;2023-04-16T08:05:01;9.50;99.90
34492;DHT22;20737;49.908;8.126;2023-04-16T08:07:27;9.50;99.90
34492;DHT22;20737;49.908;8.126;2023-04-16T08:09:54;9.60;99.90
34492;DHT22;20737;49.908;8.126;2023-04-16T08:12:21;9.60;99.90
34492;DHT22;20737;49.908;8.126;2023-04-16T08:14:49;9.60;99.90
34492;DHT22;20737;49.908;8.126;2023-04-16T08:17:16;9.60;99.90
34492;DHT22;20737;49.908;8.126;2023-04-16T08:19:43;9.70;99.90
34492;DHT22;20737;49.908;8.126;2023-04-16T08:22:10;9.70;99.90
34492;DHT22;20737;49.908;8.126;2023-04-16T08:24:37;9.70;99.90
34492;DHT22;20737;49.908;8.126;2023-04-16T08:27:04;9.80;99.90
34492;DHT22;20737;49.908;8.126;2023-04-16T08:29:31;9.70;99.90
34492;DHT22;20737;49.908;8.126;2023-04-16T08:31:59;9.80;99.90
34492;DHT22;20737;49.908;8.126;2023-04-16T08:34:26;9.80;99.90
34492;DHT22;20737;49.908;8.126;2023-04-16T08:36:52;9.80;99.90
34492;DHT22;20737;49.908;8.126;2023-04-16T08:39:20;9.80;99.90
34492;DHT22;20737;49.908;8.126;2023-04-16T08:41:48;9.80;99.90
34492;DHT22;20737;49.908;8.126;2023-04-16T08:44:25;9.80;99.90
34492;DHT22;20737;49.908;8.126;2023-04-16T08:46:53;9.80;99.90
34492;DHT22;20737;49.908;8.126;2023-04-16T08:49:23;9.90;99.90
34492;DHT22;20737;49.908;8.126;2023-04-16T08:51:51;9.90;99.90
34492;DHT22;20737;49.908;8.126;2023-04-16T08:54:30;9.90;99.90
34492;DHT22;20737;49.908;8.126;2023-04-16T08:56:58;9.80;99.90
34492;DHT22;20737;49.908;8.126;2023-04-16T08:59:26;9.80;99.90
34492;DHT22;20737;49.908;8.126;2023-04-16T09:01:56;9.90;99.90
34492;DHT22;20737;49.908;8.126;2023-04-16T09:04:25;10.00;99.90
34492;DHT22;20737;49.908;8.126;2023-04-16T09:06:54;10.20;99.90
34492;DHT22;20737;49.908;8.126;2023-04-16T09:09:22;10.30;99.90
34492;DHT22;20737;49.908;8.126;2023-04-16T09:11:50;10.30;99.90
34492;DHT22;20737;49.908;8.126;2023-04-16T09:14:18;10.30;99.90
34492;DHT22;20737;49.908;8.126;2023-04-16T09:16:45;10.20;99.90
34492;DHT22;20737;49.908;8.126;2023-04-16T09:19:12;10.20;99.90
34492;DHT22;20737;49.908;8.126;2023-04-16T09:21:41;10.10;99.90
34492;DHT22;20737;49.908;8.126;2023-04-16T09:24:09;10.20;99.90
34492;DHT22;20737;49.908;8.126;2023-04-16T09:26:35;10.20;99.90
34492;DHT22;20737;49.908;8.126;2023-04-16T09:29:03;10.10;99.90
34492;DHT22;20737;49.908;8.126;2023-04-16T09:31:30;10.20;99.90
34492;DHT22;20737;49.908;8.126;2023-04-16T09:34:01;10.30;99.90
34492;DHT22;20737;49.908;8.126;2023-04-16T09:36:28;10.40;99.90
34492;DHT22;20737;49.908;8.126;2023-04-16T09:38:57;10.50;99.90
34492;DHT22;20737;49.908;8.126;2023-04-16T09:41:26;10.50;99.90
34492;DHT22;20737;49.908;8.126;2023-04-16T09:43:54;10.60;99.90
34492;DHT22;20737;49.908;8.126;2023-04-16T09:46:22;10.70;99.90
34492;DHT22;20737;49.908;8.126;2023-04-16T09:48:49;10.80;99.90
34492;DHT22;20737;49.908;8.126;2023-04-16T09:51:16;10.90;99.90
34492;DHT22;20737;49.908;8.126;2023-04-16T09:53:43;11.00;99.90
34492;DHT22;20737;49.908;8.126;2023-04-16T09:56:12;11.10;99.90
34492;DHT22;20737;49.908;8.126;2023-04-16T09:58:38;11.30;99.90
34492;DHT22;20737;49.908;8.126;2023-04-16T10:01:07;11.40;99.90
34492;DHT22;20737;49.908;8.126;2023-04-16T10:03:36;11.60;99.90
34492;DHT22;20737;49.908;8.126;2023-04-16T10:06:07;11.60;99.90
34492;DHT22;20737;49.908;8.126;2023-04-16T10:08:34;11.70;99.90
34492;DHT22;20737;49.908;8.126;2023-04-16T10:11:01;11.90;99.90
34492;DHT22;20737;49.908;8.126;2023-04-16T10:13:30;11.70;99.90
34492;DHT22;20737;49.908;8.126;2023-04-16T10:15:57;11.80;99.90
34492;DHT22;20737;49.908;8.126;2023-04-16T10:18:24;11.70;99.90
34492;DHT22;20737;49.908;8.126;2023-04-16T10:20:52;11.80;99.90
34492;DHT22;20737;49.908;8.126;2023-04-16T10:23:19;11.70;99.90
34492;DHT22;20737;49.908;8.126;2023-04-16T10:25:47;11.80;99.90
34492;DHT22;20737;49.908;8.126;2023-04-16T10:28:14;11.80;99.90
34492;DHT22;20737;49.908;8.126;2023-04-16T10:30:46;11.80;99.90
34492;DHT22;20737;49.908;8.126;2023-04-16T10:33:19;11.90;99.90
34492;DHT22;20737;49.908;8.126;2023-04-16T10:35:46;11.60;99.90
34492;DHT22;20737;49.908;8.126;2023-04-16T10:38:27;11.60;99.90
34492;DHT22;20737;49.908;8.126;2023-04-16T10:41:01;11.40;99.90
34492;DHT22;20737;49.908;8.126;2023-04-16T10:43:29;11.40;99.90
34492;DHT22;20737;49.908;8.126;2023-04-16T10:46:19;11.40;99.90
34492;DHT22;20737;49.908;8.126;2023-04-16T10:48:46;11.50;99.90
34492;DHT22;20737;49.908;8.126;2023-04-16T10:51:24;11.50;99.90
34492;DHT22;20737;49.908;8.126;2023-04-16T10:53:53;11.40;99.90
34492;DHT22;20737;49.908;8.126;2023-04-16T10:56:24;11.60;99.90
34492;DHT22;20737;49.908;8.126;2023-04-16T10:58:52;11.60;99.90
34492;DHT22;20737;49.908;8.126;2023-04-16T11:01:29;11.70;99.90
34492;DHT22;20737;49.908;8.126;2023-04-16T11:03:59;11.90;99.90
34492;DHT22;20737;49.908;8.126;2023-04-16T11:06:27;12.20;99.90
34492;DHT22;20737;49.908;8.126;2023-04-16T11:08:54;12.30;99.90
34492;DHT22;20737;49.908;8.126;2023-04-16T11:11:21;12.50;99.90
34492;DHT22;20737;49.908;8.126;2023-04-16T11:13:48;12.70;99.90
34492;DHT22;20737;49.908;8.126;2023-04-16T11:16:16;12.70;99.90
34492;DHT22;20737;49.908;8.126;2023-04-16T11:18:45;12.80;99.90
34492;DHT22;20737;49.908;8.126;2023-04-16T11:21:12;13.00;99.90
34492;DHT22;20737;49.908;8.126;2023-04-16T11:23:47;13.00;99.90
34492;DHT22;20737;49.908;8.126;2023-04-16T11:26:24;12.90;99.90
34492;DHT22;20737;49.908;8.126;2023-04-16T11:28:51;12.60;99.90
34492;DHT22;20737;49.908;8.126;2023-04-16T11:31:18;12.50;99.90
34492;DHT22;20737;49.908;8.126;2023-04-16T11:33:46;12.60;99.90
34492;DHT22;20737;49.908;8.126;2023-04-16T11:36:13;12.50;99.90
34492;DHT22;20737;49.908;8.126;2023-04-16T11:38:40;12.50;99.90
34492;DHT22;20737;49.908;8.126;2023-04-16T11:41:07;12.40;99.90
34492;DHT22;20737;49.908;8.126;2023-04-16T11:43:34;12.30;99.90
34492;DHT22;20737;49.908;8.126;2023-04-16T11:46:02;12.20;99.90
34492;DHT22;20737;49.908;8.126;2023-04-16T11:48:51;12.10;99.90
34492;DHT22;20737;49.908;8.126;2023-04-16T11:51:18;12.10;99.90
34492;DHT22;20737;49.908;8.126;2023-04-16T11:53:47;12.20;99.90
34492;DHT22;20737;49.908;8.126;2023-04-16T11:56:14;12.20;99.90
34492;DHT22;20737;49.908;8.126;2023-04-16T11:58:42;12.20;99.90
34492;DHT22;20737;49.908;8.126;2023-04-16T12:01:09;12.10;99.90
34492;DHT22;20737;49.908;8.126;2023-04-16T12:03:39;12.10;99.90
34492;DHT22;20737;49.908;8.126;2023-04-16T12:06:09;12.10;99.90
34492;DHT22;20737;49.908;8.126;2023-04-16T12:08:36;12.10;99.90
34492;DHT22;20737;49.908;8.126;2023-04-16T12:11:03;12.10;99.90
34492;DHT22;20737;49.908;8.126;2023-04-16T12:13:30;12.10;99.90
34492;DHT22;20737;49.908;8.126;2023-04-16T12:16:16;12.20;99.90
34492;DHT22;20737;49.908;8.126;2023-04-16T12:19:00;12.10;99.90
34492;DHT22;20737;49.908;8.126;2023-04-16T12:21:41;12.00;99.90
34492;DHT22;20737;49.908;8.126;2023-04-16T12:24:09;11.90;99.90
34492;DHT22;20737;49.908;8.126;2023-04-16T12:26:41;12.00;99.90
34492;DHT22;20737;49.908;8.126;2023-04-16T12:29:16;12.00;99.90
34492;DHT22;20737;49.908;8.126;2023-04-16T12:31:43;12.10;99.90
34492;DHT22;20737;49.908;8.126;2023-04-16T12:34:10;12.10;99.90
34492;DHT22;20737;49.908;8.126;2023-04-16T12:36:38;12.20;99.90
34492;DHT22;20737;49.908;8.126;2023-04-16T12:39:05;12.20;99.90
34492;DHT22;20737;49.908;8.126;2023-04-16T12:41:32;12.20;99.90
34492;DHT22;20737;49.908;8.126;2023-04-16T12:44:06;12.20;99.90
34492;DHT22;20737;49.908;8.126;2023-04-16T12:46:37;12.30;99.90
34492;DHT22;20737;49.908;8.126;2023-04-16T12:49:04;12.40;99.90
34492;DHT22;20737;49.908;8.126;2023-04-16T12:51:31;12.50;99.90
34492;DHT22;20737;49.908;8.126;2023-04-16T12:54:00;12.60;99.90
34492;DHT22;20737;49.908;8.126;2023-04-16T12:56:27;12.80;99.90
34492;DHT22;20737;49.908;8.126;2023-04-16T12:58:54;12.90;99.90
34492;DHT22;20737;49.908;8.126;2023-04-16T13:01:21;13.00;99.90
34492;DHT22;20737;49.908;8.126;2023-04-16T13:03:48;13.20;99.90
34492;DHT22;20737;49.908;8.126;2023-04-16T13:06:16;13.60;99.90
34492;DHT22;20737;49.908;8.126;2023-04-16T13:08:43;13.80;99.90
34492;DHT22;20737;49.908;8.126;2023-04-16T13:11:12;14.10;99.90
34492;DHT22;20737;49.908;8.126;2023-04-16T13:13:38;14.60;99.90
34492;DHT22;20737;49.908;8.126;2023-04-16T13:16:05;14.80;99.90
34492;DHT22;20737;49.908;8.126;2023-04-16T13:18:34;15.40;99.90
34492;DHT22;20737;49.908;8.126;2023-04-16T13:21:02;16.00;99.90
34492;DHT22;20737;49.908;8.126;2023-04-16T13:23:29;16.30;99.90
34492;DHT22;20737;49.908;8.126;2023-04-16T13:25:55;16.30;99.90
34492;DHT22;20737;49.908;8.126;2023-04-16T13:28:24;15.40;99.90
34492;DHT22;20737;49.908;8.126;2023-04-16T13:30:51;14.90;99.90
34492;DHT22;20737;49.908;8.126;2023-04-16T13:33:18;14.50;99.90
34492;DHT22;20737;49.908;8.126;2023-04-16T13:35:46;14.20;99.90
34492;DHT22;20737;49.908;8.126;2023-04-16T13:38:13;14.20;99.90
34492;DHT22;20737;49.908;8.126;2023-04-16T13:40:39;14.40;99.90
34492;DHT22;20737;49.908;8.126;2023-04-16T13:43:06;14.70;99.90
34492;DHT22;20737;49.908;8.126;2023-04-16T13:45:36;14.90;99.90
34492;DHT22;20737;49.908;8.126;2023-04-16T13:48:03;14.70;99.90
34492;DHT22;20737;49.908;8.126;2023-04-16T13:50:30;14.80;99.90
34492;DHT22;20737;49.908;8.126;2023-04-16T13:52:56;14.80;99.90
34492;DHT22;20737;49.908;8.126;2023-04-16T13:55:23;14.50;99.90
34492;DHT22;20737;49.908;8.126;2023-04-16T13:57:50;14.10;99.90
34492;DHT22;20737;49.908;8.126;2023-04-16T14:00:18;14.50;99.90
34492;DHT22;20737;49.908;8.126;2023-04-16T14:02:46;15.60;99.90
34492;DHT22;20737;49.908;8.126;2023-04-16T14:05:13;16.00;99.90
34492;DHT22;20737;49.908;8.126;2023-04-16T14:07:40;16.10;99.90
34492;DHT22;20737;49.908;8.126;2023-04-16T14:10:08;15.80;99.90
34492;DHT22;20737;49.908;8.126;2023-04-16T14:12:35;16.10;99.90
34492;DHT22;20737;49.908;8.126;2023-04-16T14:15:03;16.40;99.90
34492;DHT22;20737;49.908;8.126;2023-04-16T14:17:31;16.50;99.90
34492;DHT22;20737;49.908;8.126;2023-04-16T14:19:59;17.10;99.90
34492;DHT22;20737;49.908;8.126;2023-04-16T14:22:26;17.10;99.90
34492;DHT22;20737;49.908;8.126;2023-04-16T14:24:52;16.80;99.90
34492;DHT22;20737;49.908;8.126;2023-04-16T14:27:19;17.20;99.90
34492;DHT22;20737;49.908;8.126;2023-04-16T14:29:46;17.40;99.90
34492;DHT22;20737;49.908;8.126;2023-04-16T14:32:13;17.40;99.90
34492;DHT22;20737;49.908;8.126;2023-04-16T14:34:39;17.50;99.90
34492;DHT22;20737;49.908;8.126;2023-04-16T14:37:08;17.30;99.90
34492;DHT22;20737;49.908;8.126;2023-04-16T14:39:34;17.20;99.90
34492;DHT22;20737;49.908;8.126;2023-04-16T14:42:03;17.00;99.90
34492;DHT22;20737;49.908;8.126;2023-04-16T14:44:30;17.40;99.90
34492;DHT22;20737;49.908;8.126;2023-04-16T14:46:57;18.10;99.90
34492;DHT22;20737;49.908;8.126;2023-04-16T14:49:24;18.40;99.90
34492;DHT22;20737;49.908;8.126;2023-04-16T14:51:51;18.20;99.90
34492;DHT22;20737;49.908;8.126;2023-04-16T14:54:19;18.20;99.90
34492;DHT22;20737;49.908;8.126;2023-04-16T14:56:46;18.20;99.90
34492;DHT22;20737;49.908;8.126;2023-04-16T14:59:13;18.30;99.90
34492;DHT22;20737;49.908;8.126;2023-04-16T15:01:39;18.70;99.90
34492;DHT22;20737;49.908;8.126;2023-04-16T15:04:07;19.50;99.90
34492;DHT22;20737;49.908;8.126;2023-04-16T15:06:34;19.50;99.90
34492;DHT22;20737;49.908;8.126;2023-04-16T15:09:01;18.90;99.90
34492;DHT22;20737;49.908;8.126;2023-04-16T15:11:29;18.70;99.90
34492;DHT22;20737;49.908;8.126;2023-04-16T15:13:56;17.80;99.90
34492;DHT22;20737;49.908;8.126;2023-04-16T15:16:23;18.20;99.90
34492;DHT22;20737;49.908;8.126;2023-04-16T15:18:51;17.90;99.90
34492;DHT22;20737;49.908;8.126;2023-04-16T15:21:18;17.60;99.90
34492;DHT22;20737;49.908;8.126;2023-04-16T15:23:44;17.50;99.90
34492;DHT22;20737;49.908;8.126;2023-04-16T15:26:11;17.30;99.90
34492;DHT22;20737;49.908;8.126;2023-04-16T15:28:39;17.40;99.90
34492;DHT22;20737;49.908;8.126;2023-04-16T15:31:06;17.50;99.90
34492;DHT22;20737;49.908;8.126;2023-04-16T15:33:33;17.50;99.90
34492;DHT22;20737;49.908;8.126;2023-04-16T15:35:59;17.20;99.90
34492;DHT22;20737;49.908;8.126;2023-04-16T15:38:27;17.10;99.90
34492;DHT22;20737;49.908;8.126;2023-04-16T15:40:57;17.00;99.90
34492;DHT22;20737;49.908;8.126;2023-04-16T15:43:26;17.10;99.90